CheckWX is a tool to help pilots better visualize weather data.  It is not intended as a substitute for an official pre-flight weather briefing.

06:01:29 UTC

KUKL METAR
Coffey County Airport
Burlington, Kansas, USA
Current

6 mins ago

KUKL 290555Z AUTO 31006KT 10SM CLR 16/14 A3010 RMK AO2 T01600143 10202 20158 402340158
Observed
May-29 @ 05:55 UTC
Wind
  • 310° at 6 KTS
Visibility
Flight Rules
VFR
Cloud Levels
  • Clear skies
Dewpoint
14°C / 57°F
Humidity
88%
Altimeter
30.1" Hg
Pressure
1019.32 hPa
Previous

26 mins ago

KUKL 290535Z AUTO 31006KT 10SM CLR 16/15 A3009 RMK AO2 T01580150
Observed
May-29 @ 05:35 UTC
Wind
  • 310° at 6 KTS
Visibility
Flight Rules
VFR
Cloud Levels
  • Clear skies
Temperature
16°C / 61°F
Dewpoint
15°C / 59°F
Humidity
94%
Altimeter
30.09" Hg
Pressure
1018.92 hPa
Previous

46 mins ago

KUKL 290515Z AUTO 30006KT 10SM CLR 16/16 A3008 RMK AO2 T01620161
Observed
May-29 @ 05:15 UTC
Wind
  • 300° at 6 KTS
Visibility
Flight Rules
VFR
Cloud Levels
  • Clear skies
Temperature
16°C / 61°F
Dewpoint
16°C / 61°F
Humidity
100%
Altimeter
30.08" Hg
Pressure
1018.62 hPa